createdAt,value
2018-07-23T00:01:45.890Z,99.90
2018-07-23T00:04:14.428Z,99.90
2018-07-23T00:06:42.918Z,99.90
2018-07-23T00:09:11.454Z,99.90
2018-07-23T00:11:39.944Z,99.90
2018-07-23T00:14:08.476Z,99.90
2018-07-23T00:16:37.039Z,99.90
2018-07-23T00:19:06.166Z,99.90
2018-07-23T00:21:34.734Z,99.90
2018-07-23T00:24:03.363Z,99.90
2018-07-23T00:26:31.923Z,99.90
2018-07-23T00:29:00.446Z,99.90
2018-07-23T00:31:28.931Z,99.90
2018-07-23T00:33:57.413Z,99.90
2018-07-23T00:36:25.932Z,99.90
2018-07-23T00:38:54.459Z,99.90
2018-07-23T00:41:22.958Z,99.90
2018-07-23T00:43:51.466Z,99.90
2018-07-23T00:46:19.982Z,99.90
2018-07-23T00:48:48.470Z,99.90
2018-07-23T00:51:17.026Z,99.90
2018-07-23T00:53:45.502Z,99.90
2018-07-23T00:56:13.987Z,99.90
2018-07-23T00:58:42.523Z,99.90
2018-07-23T01:01:11.018Z,99.90
2018-07-23T01:03:39.514Z,99.90
2018-07-23T01:06:08.083Z,99.90
2018-07-23T01:08:36.668Z,99.90
2018-07-23T01:11:05.358Z,99.90
2018-07-23T01:13:33.895Z,99.90
2018-07-23T01:16:02.397Z,99.90
2018-07-23T01:18:30.898Z,99.90
2018-07-23T01:20:59.398Z,99.90
2018-07-23T01:23:27.894Z,99.90
2018-07-23T01:25:56.374Z,99.90
2018-07-23T01:28:24.870Z,99.90
2018-07-23T01:30:53.539Z,99.90
2018-07-23T01:33:22.034Z,99.90
2018-07-23T01:35:50.663Z,99.90
2018-07-23T01:38:19.140Z,99.90
2018-07-23T01:40:47.646Z,99.90
2018-07-23T01:43:16.263Z,99.90
2018-07-23T01:45:44.826Z,99.90
2018-07-23T01:48:13.363Z,99.90
2018-07-23T01:50:41.846Z,99.90
2018-07-23T01:53:10.399Z,99.90
2018-07-23T01:58:07.128Z,99.90
2018-07-23T02:00:35.638Z,99.90
2018-07-23T02:03:04.290Z,99.90
2018-07-23T02:05:32.806Z,99.90
2018-07-23T02:08:01.307Z,99.90
2018-07-23T02:10:29.820Z,99.90
2018-07-23T02:12:58.303Z,99.90
2018-07-23T02:15:27.146Z,99.90
2018-07-23T02:17:55.622Z,99.90
2018-07-23T02:20:24.163Z,99.90
2018-07-23T02:22:52.704Z,99.90
2018-07-23T02:25:21.201Z,99.90
2018-07-23T02:30:17.846Z,99.90
2018-07-23T02:32:46.362Z,99.90
2018-07-23T02:35:14.870Z,99.90
2018-07-23T02:37:44.318Z,99.90
2018-07-23T02:40:12.858Z,99.90
2018-07-23T02:42:41.338Z,99.90
2018-07-23T02:45:09.879Z,99.90
2018-07-23T02:47:38.363Z,99.90
2018-07-23T02:50:06.916Z,99.90
2018-07-23T02:52:35.463Z,99.90
2018-07-23T02:55:04.079Z,99.90
2018-07-23T02:57:32.616Z,99.90
2018-07-23T03:00:01.225Z,99.90
2018-07-23T03:02:29.747Z,99.90
2018-07-23T03:04:58.242Z,99.90
2018-07-23T03:07:26.787Z,99.90
2018-07-23T03:09:55.278Z,99.90
2018-07-23T03:12:23.817Z,99.90
2018-07-23T03:17:20.490Z,99.90
2018-07-23T03:19:49.130Z,99.90
2018-07-23T03:22:17.667Z,99.90
2018-07-23T03:24:46.447Z,99.90
2018-07-23T03:27:14.939Z,99.90
2018-07-23T03:29:43.549Z,99.90
2018-07-23T03:32:12.142Z,99.90
2018-07-23T03:34:40.660Z,99.90
2018-07-23T03:37:09.270Z,99.90
2018-07-23T03:39:37.750Z,99.90
2018-07-23T03:42:06.338Z,99.90
2018-07-23T03:44:34.851Z,99.90
2018-07-23T03:47:03.382Z,99.90
2018-07-23T03:49:31.963Z,99.90
2018-07-23T03:52:00.466Z,99.90
2018-07-23T03:54:28.989Z,99.90
2018-07-23T03:56:57.482Z,99.90
2018-07-23T03:59:26.002Z,99.90
2018-07-23T04:01:54.566Z,99.90
2018-07-23T04:04:23.056Z,99.90
2018-07-23T04:06:51.558Z,99.90
2018-07-23T04:09:20.142Z,99.90
2018-07-23T04:11:48.639Z,99.90
2018-07-23T04:14:17.159Z,99.90
2018-07-23T04:16:45.731Z,99.90
2018-07-23T04:19:14.248Z,99.90
2018-07-23T04:21:42.801Z,99.90
2018-07-23T04:24:11.351Z,99.90
2018-07-23T04:26:39.838Z,99.90
2018-07-23T04:29:08.366Z,99.90
2018-07-23T04:31:36.900Z,99.90
2018-07-23T04:34:05.430Z,99.90
2018-07-23T04:36:33.925Z,99.90
2018-07-23T04:39:02.463Z,99.90
2018-07-23T04:41:31.039Z,99.90
2018-07-23T04:43:59.538Z,99.90
2018-07-23T04:46:28.051Z,99.90
2018-07-23T04:48:56.603Z,99.90
2018-07-23T04:51:25.094Z,99.90
2018-07-23T04:53:53.639Z,99.90
2018-07-23T04:56:22.190Z,99.90
2018-07-23T04:58:50.661Z,99.90
2018-07-23T05:01:19.158Z,99.90
2018-07-23T05:03:47.676Z,99.90
2018-07-23T05:06:16.877Z,99.90
2018-07-23T05:08:45.447Z,99.90
2018-07-23T05:11:13.957Z,99.90
2018-07-23T05:13:42.499Z,99.90
2018-07-23T05:16:11.102Z,99.90
2018-07-23T05:18:39.622Z,99.90
2018-07-23T05:21:08.376Z,99.90
2018-07-23T05:23:36.942Z,99.90
2018-07-23T05:26:05.461Z,99.90
2018-07-23T05:28:34.018Z,99.90
2018-07-23T05:31:02.582Z,99.90
2018-07-23T05:33:31.302Z,99.90
2018-07-23T05:35:59.813Z,99.90
2018-07-23T05:38:28.856Z,99.90
2018-07-23T05:40:57.365Z,99.90
2018-07-23T05:43:25.870Z,99.90
2018-07-23T05:45:54.342Z,99.90
2018-07-23T05:48:23.113Z,99.90
2018-07-23T05:50:51.630Z,99.90
2018-07-23T05:53:20.158Z,99.90
2018-07-23T05:55:48.683Z,99.90
2018-07-23T05:58:17.378Z,99.90
2018-07-23T06:00:45.930Z,99.90
2018-07-23T06:03:14.509Z,99.90
2018-07-23T06:05:42.973Z,99.90
2018-07-23T06:08:11.515Z,99.90
2018-07-23T06:10:40.102Z,99.90
2018-07-23T06:13:08.659Z,99.90
2018-07-23T06:15:37.431Z,99.90
2018-07-23T06:18:06.090Z,99.90
2018-07-23T06:20:34.599Z,99.90
2018-07-23T06:23:03.199Z,99.90
2018-07-23T06:25:31.718Z,99.90
2018-07-23T06:28:00.281Z,99.90
2018-07-23T06:30:28.798Z,99.90
2018-07-23T06:32:57.378Z,99.90
2018-07-23T06:35:25.923Z,99.90
2018-07-23T06:37:54.435Z,99.90
2018-07-23T06:40:23.031Z,99.90
2018-07-23T06:42:51.592Z,99.90
2018-07-23T06:45:20.186Z,99.90
2018-07-23T06:47:48.671Z,99.90
2018-07-23T06:50:17.254Z,99.90
2018-07-23T06:52:45.763Z,99.90
2018-07-23T06:55:14.327Z,99.90
2018-07-23T06:57:43.274Z,99.90
2018-07-23T07:00:12.060Z,99.90
2018-07-23T07:02:40.594Z,99.90
2018-07-23T07:05:09.106Z,99.90
2018-07-23T07:07:37.613Z,99.90
2018-07-23T07:10:06.790Z,99.90
2018-07-23T07:12:35.330Z,99.90
2018-07-23T07:15:03.935Z,99.90
2018-07-23T07:17:32.421Z,99.90
2018-07-23T07:20:01.085Z,99.90
2018-07-23T07:22:29.508Z,99.90
2018-07-23T07:24:58.035Z,99.90
2018-07-23T07:27:26.539Z,99.90
2018-07-23T07:29:55.090Z,99.90
2018-07-23T07:32:23.567Z,99.90
2018-07-23T07:34:52.148Z,99.90
2018-07-23T07:37:20.671Z,99.90
2018-07-23T07:42:17.280Z,99.90
2018-07-23T07:44:45.788Z,99.90
2018-07-23T07:47:14.316Z,99.90
2018-07-23T07:49:42.803Z,99.90
2018-07-23T07:52:11.333Z,99.90
2018-07-23T07:54:39.805Z,99.90
2018-07-23T07:57:08.298Z,99.90
2018-07-23T07:59:36.777Z,99.90
2018-07-23T08:02:05.323Z,99.90
2018-07-23T08:04:33.839Z,99.90
2018-07-23T08:07:02.366Z,99.90
2018-07-23T08:09:31.795Z,99.90
2018-07-23T08:12:00.342Z,99.90
2018-07-23T08:14:30.757Z,99.90
2018-07-23T08:16:59.342Z,99.90
2018-07-23T08:19:29.375Z,99.20
2018-07-23T08:21:57.962Z,99.50
2018-07-23T08:24:28.365Z,99.20
2018-07-23T08:26:57.199Z,98.70
2018-07-23T08:29:25.762Z,98.10
2018-07-23T08:31:54.319Z,96.70
2018-07-23T08:34:22.807Z,96.40
2018-07-23T08:36:51.301Z,95.20
2018-07-23T08:39:19.890Z,97.40
2018-07-23T08:41:48.402Z,95.50
2018-07-23T08:44:16.883Z,94.20
2018-07-23T08:46:45.453Z,94.60
2018-07-23T08:49:13.986Z,93.20
2018-07-23T08:51:42.489Z,94.00
2018-07-23T08:54:11.042Z,94.20
2018-07-23T08:56:39.600Z,93.70
2018-07-23T08:59:08.163Z,93.20
2018-07-23T09:01:36.652Z,91.00
2018-07-23T09:04:05.315Z,91.50
2018-07-23T09:09:01.988Z,90.50
2018-07-23T09:11:30.507Z,90.00
2018-07-23T09:13:59.061Z,90.30
2018-07-23T09:16:27.615Z,88.30
2018-07-23T09:18:56.123Z,90.90
2018-07-23T09:21:24.606Z,89.90
2018-07-23T09:23:53.321Z,85.50
2018-07-23T09:26:22.083Z,86.90
2018-07-23T09:28:50.600Z,88.30
2018-07-23T09:31:19.121Z,84.10
2018-07-23T09:33:48.077Z,84.00
2018-07-23T09:36:16.654Z,84.60
2018-07-23T09:38:45.310Z,81.70
2018-07-23T09:41:13.827Z,80.80
2018-07-23T09:43:42.358Z,80.50
2018-07-23T09:46:10.873Z,77.70
2018-07-23T09:48:39.375Z,79.30
2018-07-23T09:51:07.943Z,77.30
2018-07-23T09:53:36.518Z,73.50
2018-07-23T09:56:05.202Z,72.10
2018-07-23T09:58:33.890Z,73.20
2018-07-23T10:01:07.603Z,71.50
2018-07-23T10:03:36.309Z,71.00
2018-07-23T10:06:05.801Z,69.70
2018-07-23T10:08:34.461Z,69.50
2018-07-23T10:11:03.203Z,72.00
2018-07-23T10:13:31.766Z,73.30
2018-07-23T10:16:01.804Z,72.90
2018-07-23T10:18:30.404Z,72.90
2018-07-23T10:20:59.010Z,77.50
2018-07-23T10:23:27.758Z,69.60
2018-07-23T10:25:56.299Z,69.10
2018-07-23T10:28:24.803Z,70.80
2018-07-23T10:30:53.328Z,70.20
2018-07-23T10:33:21.833Z,68.90
2018-07-23T10:35:50.361Z,71.40
2018-07-23T10:38:18.891Z,71.60
2018-07-23T10:40:47.414Z,71.30
2018-07-23T10:43:16.228Z,68.00
2018-07-23T10:45:45.046Z,68.60
2018-07-23T10:48:13.734Z,71.80
2018-07-23T10:50:42.326Z,67.60
2018-07-23T10:53:10.851Z,67.10
2018-07-23T10:55:39.389Z,62.90
2018-07-23T10:58:08.140Z,66.40
2018-07-23T11:00:36.879Z,66.50
2018-07-23T11:03:05.643Z,66.50
2018-07-23T11:05:34.178Z,65.10
2018-07-23T11:08:02.726Z,64.20
2018-07-23T11:10:31.230Z,64.60
2018-07-23T11:12:59.728Z,62.60
2018-07-23T11:15:28.469Z,63.50
2018-07-23T11:17:57.436Z,61.60
2018-07-23T11:20:26.216Z,61.50
2018-07-23T11:22:54.795Z,61.70
2018-07-23T11:25:38.979Z,62.50
2018-07-23T11:27:51.879Z,60.90
2018-07-23T11:30:20.429Z,60.00
2018-07-23T11:32:48.970Z,65.10
2018-07-23T11:35:17.631Z,60.80
2018-07-23T11:37:46.174Z,61.80
2018-07-23T11:40:14.703Z,60.10
2018-07-23T11:42:43.661Z,58.80
2018-07-23T11:45:12.286Z,63.70
2018-07-23T11:47:40.804Z,59.40
2018-07-23T11:50:09.514Z,59.50
2018-07-23T11:52:38.202Z,59.90
2018-07-23T11:55:06.745Z,57.80
2018-07-23T11:57:35.369Z,61.40
2018-07-23T12:00:04.293Z,59.20
2018-07-23T12:02:32.797Z,60.90
2018-07-23T12:05:01.348Z,59.40
2018-07-23T12:07:29.921Z,62.50
2018-07-23T12:09:58.418Z,62.80
2018-07-23T12:12:26.955Z,62.90
2018-07-23T12:14:55.492Z,65.60
2018-07-23T12:17:24.114Z,65.20
2018-07-23T12:19:52.682Z,65.20
2018-07-23T12:22:21.174Z,66.00
2018-07-23T12:24:49.702Z,66.50
2018-07-23T12:27:18.253Z,67.90
2018-07-23T12:29:46.742Z,67.00
2018-07-23T12:32:15.293Z,65.60
2018-07-23T12:34:43.840Z,65.60
2018-07-23T12:37:12.719Z,63.40
2018-07-23T12:39:41.261Z,63.30
2018-07-23T12:42:09.726Z,62.90
2018-07-23T12:44:38.280Z,62.00
2018-07-23T12:47:06.922Z,64.80
2018-07-23T12:49:35.423Z,65.90
2018-07-23T12:52:03.905Z,67.80
2018-07-23T12:54:32.468Z,64.20
2018-07-23T12:57:00.950Z,66.40
2018-07-23T12:59:29.426Z,64.10
2018-07-23T13:01:57.941Z,63.20
2018-07-23T13:04:26.429Z,60.20
2018-07-23T13:06:55.048Z,61.60
2018-07-23T13:09:23.593Z,59.10
2018-07-23T13:11:52.143Z,58.60
2018-07-23T13:14:20.690Z,59.00
2018-07-23T13:16:49.291Z,62.00
2018-07-23T13:19:17.841Z,60.70
2018-07-23T13:21:46.472Z,62.70
2018-07-23T13:24:15.046Z,62.60
2018-07-23T13:26:43.545Z,59.90
2018-07-23T13:29:12.074Z,58.60
2018-07-23T13:31:40.601Z,59.50
2018-07-23T13:34:09.110Z,62.60
2018-07-23T13:36:37.681Z,60.90
2018-07-23T13:39:09.353Z,59.20
2018-07-23T13:41:37.843Z,59.00
2018-07-23T13:44:06.394Z,59.50
2018-07-23T13:46:34.952Z,59.60
2018-07-23T13:49:03.619Z,60.80
2018-07-23T13:51:32.146Z,59.30
2018-07-23T13:54:00.894Z,62.10
2018-07-23T13:56:29.606Z,61.80
2018-07-23T13:58:58.197Z,63.20
2018-07-23T14:01:26.834Z,62.30
2018-07-23T14:03:55.254Z,61.90
2018-07-23T14:06:23.745Z,64.80
2018-07-23T14:08:52.343Z,63.90
2018-07-23T14:11:20.918Z,60.60
2018-07-23T14:13:49.404Z,62.40
2018-07-23T14:16:17.923Z,61.20
2018-07-23T14:18:46.443Z,60.00
2018-07-23T14:21:15.058Z,61.90
2018-07-23T14:23:43.614Z,62.60
2018-07-23T14:26:12.161Z,62.50
2018-07-23T14:28:40.766Z,63.00
2018-07-23T14:31:09.343Z,65.20
2018-07-23T14:33:37.861Z,62.60
2018-07-23T14:36:06.434Z,63.90
2018-07-23T14:38:34.936Z,64.60
2018-07-23T14:41:03.474Z,60.90
2018-07-23T14:43:32.028Z,60.40
2018-07-23T14:46:00.597Z,61.70
2018-07-23T14:48:29.178Z,63.30
2018-07-23T14:50:57.729Z,62.70
2018-07-23T14:53:26.615Z,61.00
2018-07-23T14:55:55.212Z,59.50
2018-07-23T14:58:23.720Z,62.30
2018-07-23T15:00:52.281Z,61.70
2018-07-23T15:03:20.858Z,61.20
2018-07-23T15:05:49.413Z,59.90
2018-07-23T15:08:18.438Z,62.30
2018-07-23T15:10:47.023Z,60.30
2018-07-23T15:13:15.501Z,64.30
2018-07-23T15:15:44.734Z,61.60
2018-07-23T15:18:13.271Z,61.50
2018-07-23T15:20:41.847Z,61.60
2018-07-23T15:23:10.435Z,61.90
2018-07-23T15:25:38.973Z,63.80
2018-07-23T15:28:07.684Z,62.10
2018-07-23T15:30:36.155Z,63.10
2018-07-23T15:33:04.680Z,61.70
2018-07-23T15:35:33.227Z,62.80
2018-07-23T15:38:01.818Z,61.60
2018-07-23T15:40:30.298Z,62.30
2018-07-23T15:42:58.826Z,61.30
2018-07-23T15:45:27.464Z,62.60
2018-07-23T15:47:55.840Z,63.10
2018-07-23T15:50:24.391Z,61.60
2018-07-23T15:52:52.949Z,61.40
2018-07-23T15:55:21.491Z,62.60
2018-07-23T15:57:50.013Z,63.10
2018-07-23T16:00:18.529Z,62.00
2018-07-23T16:02:47.101Z,60.40
2018-07-23T16:05:15.631Z,58.90
2018-07-23T16:10:12.448Z,61.40
2018-07-23T16:12:40.862Z,61.30
2018-07-23T16:15:09.825Z,59.50
2018-07-23T16:17:38.521Z,59.20
2018-07-23T16:20:07.569Z,58.70
2018-07-23T16:22:36.053Z,61.60
2018-07-23T16:25:05.652Z,58.50
2018-07-23T16:27:34.244Z,57.30
2018-07-23T16:30:02.828Z,58.50
2018-07-23T16:32:31.429Z,57.80
2018-07-23T16:34:59.971Z,56.90
2018-07-23T16:37:28.461Z,57.30
2018-07-23T16:39:56.993Z,55.60
2018-07-23T16:42:25.561Z,55.90
2018-07-23T16:44:54.046Z,56.00
2018-07-23T16:47:22.638Z,56.50
2018-07-23T16:49:52.348Z,56.20
2018-07-23T16:52:20.871Z,56.20
2018-07-23T16:54:50.255Z,56.00
2018-07-23T16:57:18.810Z,55.40
2018-07-23T16:59:47.400Z,56.60
2018-07-23T17:02:16.511Z,57.80
2018-07-23T17:04:45.010Z,56.50
2018-07-23T17:07:13.517Z,56.00
2018-07-23T17:09:42.077Z,55.00
2018-07-23T17:12:10.554Z,54.70
2018-07-23T17:14:39.045Z,54.90
2018-07-23T17:17:07.622Z,53.80
2018-07-23T17:19:36.256Z,54.20
2018-07-23T17:22:04.784Z,55.40
2018-07-23T17:24:33.501Z,55.60
2018-07-23T17:27:02.082Z,55.50
2018-07-23T17:29:30.786Z,55.40
2018-07-23T17:31:59.296Z,56.10
2018-07-23T17:34:27.784Z,56.00
2018-07-23T17:36:56.270Z,56.80
2018-07-23T17:39:24.766Z,56.70
2018-07-23T17:41:53.281Z,57.10
2018-07-23T17:44:21.958Z,56.90
2018-07-23T17:46:50.472Z,57.10
2018-07-23T17:49:18.982Z,57.90
2018-07-23T17:51:47.494Z,58.00
2018-07-23T17:54:16.006Z,57.10
2018-07-23T17:56:44.526Z,58.10
2018-07-23T17:59:13.097Z,57.80
2018-07-23T18:01:41.597Z,58.00
2018-07-23T18:04:10.113Z,58.00
2018-07-23T18:06:38.721Z,58.00
2018-07-23T18:09:09.438Z,58.70
2018-07-23T18:14:06.209Z,58.90
2018-07-23T18:16:34.745Z,58.70
2018-07-23T18:19:03.496Z,58.80
2018-07-23T18:21:31.995Z,59.30
2018-07-23T18:24:00.522Z,58.90
2018-07-23T18:26:29.070Z,59.30
2018-07-23T18:28:57.608Z,60.00
2018-07-23T18:31:26.112Z,59.80
2018-07-23T18:33:54.657Z,60.00
2018-07-23T18:36:23.243Z,60.50
2018-07-23T18:38:51.789Z,61.00
2018-07-23T18:41:20.462Z,61.40
2018-07-23T18:43:49.061Z,61.60
2018-07-23T18:46:17.558Z,62.30
2018-07-23T18:49:24.545Z,62.20
2018-07-23T18:51:53.866Z,62.50
2018-07-23T18:54:23.434Z,63.10
2018-07-23T18:56:54.721Z,63.70
2018-07-23T18:59:23.401Z,64.20
2018-07-23T19:01:52.952Z,64.30
2018-07-23T19:04:21.466Z,64.40
2018-07-23T19:06:50.222Z,64.60
2018-07-23T19:09:20.022Z,65.10
2018-07-23T19:11:49.686Z,65.60
2018-07-23T19:14:18.525Z,65.60
2018-07-23T19:19:15.658Z,66.60
2018-07-23T19:21:44.278Z,67.20
2018-07-23T19:24:12.848Z,67.30
2018-07-23T19:26:41.377Z,67.60
2018-07-23T19:29:09.927Z,67.50
2018-07-23T19:31:38.729Z,68.10
2018-07-23T19:34:07.353Z,68.70
2018-07-23T19:36:35.915Z,69.00
2018-07-23T19:39:07.567Z,69.20
2018-07-23T19:41:36.169Z,70.00
2018-07-23T19:44:04.712Z,69.90
2018-07-23T19:46:33.305Z,70.50
2018-07-23T19:49:01.820Z,70.90
2018-07-23T19:51:30.383Z,71.20
2018-07-23T19:53:59.002Z,71.70
2018-07-23T19:56:27.556Z,72.20
2018-07-23T19:58:56.111Z,72.80
2018-07-23T20:01:24.799Z,73.20
2018-07-23T20:03:53.312Z,73.30
2018-07-23T20:06:24.885Z,74.00
2018-07-23T20:08:54.427Z,74.10
2018-07-23T20:11:23.642Z,74.60
2018-07-23T20:13:52.379Z,75.00
2018-07-23T20:16:20.957Z,75.30
2018-07-23T20:18:49.527Z,75.50
2018-07-23T20:21:18.066Z,75.90
2018-07-23T20:23:46.678Z,76.00
2018-07-23T20:26:15.485Z,76.50
2018-07-23T20:28:44.086Z,76.70
2018-07-23T20:31:12.657Z,76.60
2018-07-23T20:33:41.205Z,76.70
2018-07-23T20:36:09.796Z,77.00
2018-07-23T20:38:38.367Z,77.50
2018-07-23T20:41:06.978Z,77.40
2018-07-23T20:43:35.586Z,77.40
2018-07-23T20:46:04.214Z,77.90
2018-07-23T20:48:32.765Z,79.40
2018-07-23T20:51:01.340Z,79.60
2018-07-23T20:53:29.827Z,79.50
2018-07-23T20:55:58.322Z,79.50
2018-07-23T20:58:26.826Z,80.10
2018-07-23T21:00:55.371Z,80.70
2018-07-23T21:03:23.921Z,81.80
2018-07-23T21:05:52.460Z,80.50
2018-07-23T21:08:21.082Z,79.50
2018-07-23T21:10:49.588Z,80.90
2018-07-23T21:13:18.078Z,80.50
2018-07-23T21:15:46.632Z,80.50
2018-07-23T21:18:15.137Z,80.80
2018-07-23T21:20:43.715Z,80.90
2018-07-23T21:23:12.263Z,80.50
2018-07-23T21:25:40.851Z,80.60
2018-07-23T21:28:09.354Z,81.20
2018-07-23T21:30:37.875Z,81.30
2018-07-23T21:33:06.489Z,81.60
2018-07-23T21:35:34.997Z,81.70
2018-07-23T21:38:03.521Z,82.10
2018-07-23T21:40:32.971Z,82.00
2018-07-23T21:43:01.622Z,81.90
2018-07-23T21:45:30.201Z,82.40
2018-07-23T21:47:58.689Z,82.50
2018-07-23T21:50:27.305Z,82.50
2018-07-23T21:52:55.938Z,82.80
2018-07-23T21:55:24.523Z,82.80
2018-07-23T21:57:53.337Z,82.80
2018-07-23T22:00:21.921Z,83.10
2018-07-23T22:02:50.530Z,83.20
2018-07-23T22:05:19.130Z,83.30
2018-07-23T22:07:47.631Z,83.30
2018-07-23T22:10:16.166Z,83.60
2018-07-23T22:12:44.694Z,83.30
2018-07-23T22:15:13.192Z,83.80
2018-07-23T22:17:41.759Z,84.10
2018-07-23T22:20:10.298Z,84.30
2018-07-23T22:22:38.783Z,84.20
2018-07-23T22:25:07.350Z,84.50
2018-07-23T22:27:35.865Z,84.40
2018-07-23T22:30:04.767Z,84.60
2018-07-23T22:32:33.262Z,85.10
2018-07-23T22:35:01.774Z,85.40
2018-07-23T22:37:30.717Z,85.60
2018-07-23T22:39:59.237Z,85.60
2018-07-23T22:42:28.831Z,85.50
2018-07-23T22:44:57.514Z,85.70
2018-07-23T22:47:26.023Z,86.00
2018-07-23T22:49:55.129Z,86.00
2018-07-23T22:52:23.619Z,87.10
2018-07-23T22:54:52.126Z,86.80
2018-07-23T22:57:20.642Z,86.50
2018-07-23T22:59:49.267Z,87.10
2018-07-23T23:02:17.770Z,87.10
2018-07-23T23:04:46.253Z,87.10
2018-07-23T23:07:14.931Z,87.80
2018-07-23T23:09:43.469Z,87.80
2018-07-23T23:12:11.966Z,88.50
2018-07-23T23:14:40.499Z,88.30
2018-07-23T23:17:09.042Z,89.20
2018-07-23T23:19:37.529Z,89.30
2018-07-23T23:22:06.101Z,89.80
2018-07-23T23:24:34.628Z,89.70
2018-07-23T23:27:03.126Z,90.40
2018-07-23T23:29:31.630Z,90.30
2018-07-23T23:32:00.138Z,90.40
2018-07-23T23:34:28.834Z,90.60
2018-07-23T23:36:57.455Z,90.40
2018-07-23T23:39:25.933Z,90.90
2018-07-23T23:41:54.425Z,91.20
2018-07-23T23:44:22.961Z,91.00
2018-07-23T23:46:51.520Z,91.00
2018-07-23T23:49:20.032Z,91.20
2018-07-23T23:51:48.547Z,91.60
2018-07-23T23:54:17.066Z,91.20
2018-07-23T23:56:45.534Z,91.40
2018-07-23T23:59:14.002Z,91.80
